Terminal Aerodrome Forecast
Issued by NWS Lake Charles, LA

Home | Current Version | Previous Version | Text Only | Print | Product List | Glossary On
Versions: 1 2 3 4 5 6 7 8 9 10 11 12
925
FTUS44 KLCH 112322
TAFAEX
TAF
KAEX 112322Z 1200/1224 22005KT P6SM SKC
     FM120900 21003KT 5SM BR SCT006
      TEMPO 1211/1214 2SM BR BKN003
     FM121500 26006KT P6SM SCT025
     FM121900 31008KT P6SM SCT250=

USA.gov is the U.S. government's official web portal to all federal, state and local government web resources and services.